sensor_id;sensor_type;location;lat;lon;timestamp;temperature;humidity
13598;DHT22;38563;54.258;12.574;2022-09-09T00:00:49;13.80;99.90
13598;DHT22;38563;54.258;12.574;2022-09-09T00:03:24;13.80;99.90
13598;DHT22;38563;54.258;12.574;2022-09-09T00:05:59;13.90;99.90
13598;DHT22;38563;54.258;12.574;2022-09-09T00:08:38;13.80;99.90
13598;DHT22;38563;54.258;12.574;2022-09-09T00:11:12;13.80;99.90
13598;DHT22;38563;54.258;12.574;2022-09-09T00:13:41;13.90;99.90
13598;DHT22;38563;54.258;12.574;2022-09-09T00:16:16;13.90;99.90
13598;DHT22;38563;54.258;12.574;2022-09-09T00:18:52;13.90;99.90
13598;DHT22;38563;54.258;12.574;2022-09-09T00:21:23;13.90;99.90
13598;DHT22;38563;54.258;12.574;2022-09-09T00:23:54;13.90;99.90
13598;DHT22;38563;54.258;12.574;2022-09-09T00:26:26;13.90;99.90
13598;DHT22;38563;54.258;12.574;2022-09-09T00:29:03;13.90;99.90
13598;DHT22;38563;54.258;12.574;2022-09-09T00:31:31;14.00;99.90
13598;DHT22;38563;54.258;12.574;2022-09-09T00:34:02;14.00;99.90
13598;DHT22;38563;54.258;12.574;2022-09-09T00:36:32;14.00;99.90
13598;DHT22;38563;54.258;12.574;2022-09-09T00:39:02;14.00;99.90
13598;DHT22;38563;54.258;12.574;2022-09-09T00:41:39;14.10;99.90
13598;DHT22;38563;54.258;12.574;2022-09-09T00:44:20;14.10;99.90
13598;DHT22;38563;54.258;12.574;2022-09-09T00:46:59;14.10;99.90
13598;DHT22;38563;54.258;12.574;2022-09-09T00:49:37;14.10;99.90
13598;DHT22;38563;54.258;12.574;2022-09-09T00:52:17;14.20;99.90
13598;DHT22;38563;54.258;12.574;2022-09-09T00:54:52;14.20;99.90
13598;DHT22;38563;54.258;12.574;2022-09-09T00:57:26;14.20;99.90
13598;DHT22;38563;54.258;12.574;2022-09-09T01:00:15;14.20;99.90
13598;DHT22;38563;54.258;12.574;2022-09-09T01:02:50;14.20;99.90
13598;DHT22;38563;54.258;12.574;2022-09-09T01:05:22;14.20;99.90
13598;DHT22;38563;54.258;12.574;2022-09-09T01:07:53;14.20;99.90
13598;DHT22;38563;54.258;12.574;2022-09-09T01:10:26;14.30;99.90
13598;DHT22;38563;54.258;12.574;2022-09-09T01:12:58;14.30;99.90
13598;DHT22;38563;54.258;12.574;2022-09-09T01:15:30;14.30;99.90
13598;DHT22;38563;54.258;12.574;2022-09-09T01:18:03;14.30;99.90
13598;DHT22;38563;54.258;12.574;2022-09-09T01:20:39;14.30;99.90
13598;DHT22;38563;54.258;12.574;2022-09-09T01:23:19;14.30;99.90
13598;DHT22;38563;54.258;12.574;2022-09-09T01:26:19;14.30;99.90
13598;DHT22;38563;54.258;12.574;2022-09-09T01:28:50;14.40;99.90
13598;DHT22;38563;54.258;12.574;2022-09-09T01:31:20;14.30;99.90
13598;DHT22;38563;54.258;12.574;2022-09-09T01:33:49;14.40;99.90
13598;DHT22;38563;54.258;12.574;2022-09-09T01:36:23;14.40;99.90
13598;DHT22;38563;54.258;12.574;2022-09-09T01:38:52;14.30;99.90
13598;DHT22;38563;54.258;12.574;2022-09-09T01:41:21;14.40;99.90
13598;DHT22;38563;54.258;12.574;2022-09-09T01:44:07;14.40;99.90
13598;DHT22;38563;54.258;12.574;2022-09-09T01:46:36;14.40;99.90
13598;DHT22;38563;54.258;12.574;2022-09-09T01:49:05;14.30;99.90
13598;DHT22;38563;54.258;12.574;2022-09-09T01:51:33;14.40;99.90
13598;DHT22;38563;54.258;12.574;2022-09-09T01:54:05;14.40;99.90
13598;DHT22;38563;54.258;12.574;2022-09-09T01:56:40;14.40;99.90
13598;DHT22;38563;54.258;12.574;2022-09-09T01:59:23;14.40;99.90
13598;DHT22;38563;54.258;12.574;2022-09-09T02:02:08;14.40;99.90
13598;DHT22;38563;54.258;12.574;2022-09-09T02:04:39;14.40;99.90
13598;DHT22;38563;54.258;12.574;2022-09-09T02:07:28;14.40;99.90
13598;DHT22;38563;54.258;12.574;2022-09-09T02:10:02;14.40;99.90
13598;DHT22;38563;54.258;12.574;2022-09-09T02:12:32;14.40;99.90
13598;DHT22;38563;54.258;12.574;2022-09-09T02:15:03;14.40;99.90
13598;DHT22;38563;54.258;12.574;2022-09-09T02:17:41;14.40;99.90
13598;DHT22;38563;54.258;12.574;2022-09-09T02:20:14;14.40;99.90
13598;DHT22;38563;54.258;12.574;2022-09-09T02:22:49;14.40;99.90
13598;DHT22;38563;54.258;12.574;2022-09-09T02:25:22;14.40;99.90
13598;DHT22;38563;54.258;12.574;2022-09-09T02:27:54;14.40;99.90
13598;DHT22;38563;54.258;12.574;2022-09-09T02:30:23;14.40;99.90
13598;DHT22;38563;54.258;12.574;2022-09-09T02:32:56;14.40;99.90
13598;DHT22;38563;54.258;12.574;2022-09-09T02:35:37;14.40;99.90
13598;DHT22;38563;54.258;12.574;2022-09-09T02:38:08;14.40;99.90
13598;DHT22;38563;54.258;12.574;2022-09-09T02:40:36;14.40;99.90
13598;DHT22;38563;54.258;12.574;2022-09-09T02:43:05;14.30;99.90
13598;DHT22;38563;54.258;12.574;2022-09-09T02:45:40;14.40;99.90
13598;DHT22;38563;54.258;12.574;2022-09-09T02:48:14;14.40;99.90
13598;DHT22;38563;54.258;12.574;2022-09-09T02:50:53;14.30;99.90
13598;DHT22;38563;54.258;12.574;2022-09-09T02:53:26;14.30;99.90
13598;DHT22;38563;54.258;12.574;2022-09-09T02:55:58;14.30;99.90
13598;DHT22;38563;54.258;12.574;2022-09-09T02:58:27;14.30;99.90
13598;DHT22;38563;54.258;12.574;2022-09-09T03:00:59;14.30;99.90
13598;DHT22;38563;54.258;12.574;2022-09-09T03:03:27;14.30;99.90
13598;DHT22;38563;54.258;12.574;2022-09-09T03:05:55;14.30;99.90
13598;DHT22;38563;54.258;12.574;2022-09-09T03:08:23;14.30;99.90
13598;DHT22;38563;54.258;12.574;2022-09-09T03:10:49;14.40;99.90
13598;DHT22;38563;54.258;12.574;2022-09-09T03:13:20;14.30;99.90
13598;DHT22;38563;54.258;12.574;2022-09-09T03:15:48;14.30;99.90
13598;DHT22;38563;54.258;12.574;2022-09-09T03:18:19;14.40;99.90
13598;DHT22;38563;54.258;12.574;2022-09-09T03:20:50;14.40;99.90
13598;DHT22;38563;54.258;12.574;2022-09-09T03:23:19;14.30;99.90
13598;DHT22;38563;54.258;12.574;2022-09-09T03:25:47;14.30;99.90
13598;DHT22;38563;54.258;12.574;2022-09-09T03:28:16;14.40;99.90
13598;DHT22;38563;54.258;12.574;2022-09-09T03:30:43;14.30;99.90
13598;DHT22;38563;54.258;12.574;2022-09-09T03:33:11;14.30;99.90
13598;DHT22;38563;54.258;12.574;2022-09-09T03:35:38;14.30;99.90
13598;DHT22;38563;54.258;12.574;2022-09-09T03:38:06;14.30;99.90
13598;DHT22;38563;54.258;12.574;2022-09-09T03:40:35;14.30;99.90
13598;DHT22;38563;54.258;12.574;2022-09-09T03:43:02;14.30;99.90
13598;DHT22;38563;54.258;12.574;2022-09-09T03:45:29;14.30;99.90
13598;DHT22;38563;54.258;12.574;2022-09-09T03:47:56;14.30;99.90
13598;DHT22;38563;54.258;12.574;2022-09-09T03:50:24;14.30;99.90
13598;DHT22;38563;54.258;12.574;2022-09-09T03:52:51;14.40;99.90
13598;DHT22;38563;54.258;12.574;2022-09-09T03:55:21;14.40;99.90
13598;DHT22;38563;54.258;12.574;2022-09-09T03:57:47;14.30;99.90
13598;DHT22;38563;54.258;12.574;2022-09-09T04:00:15;14.40;99.90
13598;DHT22;38563;54.258;12.574;2022-09-09T04:02:42;14.30;99.90
13598;DHT22;38563;54.258;12.574;2022-09-09T04:05:13;14.30;99.90
13598;DHT22;38563;54.258;12.574;2022-09-09T04:07:43;14.40;99.90
13598;DHT22;38563;54.258;12.574;2022-09-09T04:10:10;14.30;99.90
13598;DHT22;38563;54.258;12.574;2022-09-09T04:12:38;14.40;99.90
13598;DHT22;38563;54.258;12.574;2022-09-09T04:15:06;14.40;99.90
13598;DHT22;38563;54.258;12.574;2022-09-09T04:17:34;14.40;99.90
13598;DHT22;38563;54.258;12.574;2022-09-09T04:20:02;14.40;99.90
13598;DHT22;38563;54.258;12.574;2022-09-09T04:22:29;14.40;99.90
13598;DHT22;38563;54.258;12.574;2022-09-09T04:24:57;14.40;99.90
13598;DHT22;38563;54.258;12.574;2022-09-09T04:27:24;14.30;99.90
13598;DHT22;38563;54.258;12.574;2022-09-09T04:29:50;14.30;99.90
13598;DHT22;38563;54.258;12.574;2022-09-09T04:32:17;14.40;99.90
13598;DHT22;38563;54.258;12.574;2022-09-09T04:34:45;14.40;99.90
13598;DHT22;38563;54.258;12.574;2022-09-09T04:37:13;14.40;99.90
13598;DHT22;38563;54.258;12.574;2022-09-09T04:39:41;14.40;99.90
13598;DHT22;38563;54.258;12.574;2022-09-09T04:42:09;14.40;99.90
13598;DHT22;38563;54.258;12.574;2022-09-09T04:44:38;14.40;99.90
13598;DHT22;38563;54.258;12.574;2022-09-09T04:47:06;14.40;99.90
13598;DHT22;38563;54.258;12.574;2022-09-09T04:49:33;14.40;99.90
13598;DHT22;38563;54.258;12.574;2022-09-09T04:52:00;14.50;99.90
13598;DHT22;38563;54.258;12.574;2022-09-09T04:54:27;14.40;99.90
13598;DHT22;38563;54.258;12.574;2022-09-09T04:56:54;14.50;99.90
13598;DHT22;38563;54.258;12.574;2022-09-09T04:59:22;14.50;99.90
13598;DHT22;38563;54.258;12.574;2022-09-09T05:01:53;14.50;99.90
13598;DHT22;38563;54.258;12.574;2022-09-09T05:04:20;14.50;99.90
13598;DHT22;38563;54.258;12.574;2022-09-09T05:06:47;14.60;99.90
13598;DHT22;38563;54.258;12.574;2022-09-09T05:09:14;14.50;99.90
13598;DHT22;38563;54.258;12.574;2022-09-09T05:11:43;14.50;99.90
13598;DHT22;38563;54.258;12.574;2022-09-09T05:14:16;14.60;99.90
13598;DHT22;38563;54.258;12.574;2022-09-09T05:16:45;14.60;99.90
13598;DHT22;38563;54.258;12.574;2022-09-09T05:19:13;14.60;99.90
13598;DHT22;38563;54.258;12.574;2022-09-09T05:21:43;14.60;99.90
13598;DHT22;38563;54.258;12.574;2022-09-09T05:24:11;14.60;99.90
13598;DHT22;38563;54.258;12.574;2022-09-09T05:26:38;14.60;99.90
13598;DHT22;38563;54.258;12.574;2022-09-09T05:29:05;14.60;99.90
13598;DHT22;38563;54.258;12.574;2022-09-09T05:31:32;14.60;99.90
13598;DHT22;38563;54.258;12.574;2022-09-09T05:34:03;14.60;99.90
13598;DHT22;38563;54.258;12.574;2022-09-09T05:36:30;14.60;99.90
13598;DHT22;38563;54.258;12.574;2022-09-09T05:38:57;14.60;99.90
13598;DHT22;38563;54.258;12.574;2022-09-09T05:41:26;14.70;99.90
13598;DHT22;38563;54.258;12.574;2022-09-09T05:43:55;14.60;99.90
13598;DHT22;38563;54.258;12.574;2022-09-09T05:46:24;14.60;99.90
13598;DHT22;38563;54.258;12.574;2022-09-09T05:48:53;14.60;99.90
13598;DHT22;38563;54.258;12.574;2022-09-09T05:51:28;14.60;99.90
13598;DHT22;38563;54.258;12.574;2022-09-09T05:53:57;14.60;99.90
13598;DHT22;38563;54.258;12.574;2022-09-09T05:56:28;14.70;99.90
13598;DHT22;38563;54.258;12.574;2022-09-09T05:58:57;14.70;99.90
13598;DHT22;38563;54.258;12.574;2022-09-09T06:01:27;14.70;99.90
13598;DHT22;38563;54.258;12.574;2022-09-09T06:03:55;14.80;99.90
13598;DHT22;38563;54.258;12.574;2022-09-09T06:06:25;14.80;99.90
13598;DHT22;38563;54.258;12.574;2022-09-09T06:08:57;14.90;99.90
13598;DHT22;38563;54.258;12.574;2022-09-09T06:11:27;14.80;99.90
13598;DHT22;38563;54.258;12.574;2022-09-09T06:13:57;14.90;99.90
13598;DHT22;38563;54.258;12.574;2022-09-09T06:16:26;14.90;99.90
13598;DHT22;38563;54.258;12.574;2022-09-09T06:18:54;15.00;99.90
13598;DHT22;38563;54.258;12.574;2022-09-09T06:21:25;15.00;99.90
13598;DHT22;38563;54.258;12.574;2022-09-09T06:23:52;15.00;99.90
13598;DHT22;38563;54.258;12.574;2022-09-09T06:26:22;15.10;99.90
13598;DHT22;38563;54.258;12.574;2022-09-09T06:28:52;15.20;99.90
13598;DHT22;38563;54.258;12.574;2022-09-09T06:31:21;15.20;99.90
13598;DHT22;38563;54.258;12.574;2022-09-09T06:33:49;15.20;99.90
13598;DHT22;38563;54.258;12.574;2022-09-09T06:36:19;15.30;99.90
13598;DHT22;38563;54.258;12.574;2022-09-09T06:38:47;15.30;99.90
13598;DHT22;38563;54.258;12.574;2022-09-09T06:41:16;15.20;99.90
13598;DHT22;38563;54.258;12.574;2022-09-09T06:43:45;15.30;99.90
13598;DHT22;38563;54.258;12.574;2022-09-09T06:46:14;15.40;99.90
13598;DHT22;38563;54.258;12.574;2022-09-09T06:48:41;15.40;99.90
13598;DHT22;38563;54.258;12.574;2022-09-09T06:51:13;15.40;99.90
13598;DHT22;38563;54.258;12.574;2022-09-09T06:53:42;15.50;99.90
13598;DHT22;38563;54.258;12.574;2022-09-09T06:56:29;15.50;99.90
13598;DHT22;38563;54.258;12.574;2022-09-09T06:58:59;15.70;99.90
13598;DHT22;38563;54.258;12.574;2022-09-09T07:01:31;15.60;99.90
13598;DHT22;38563;54.258;12.574;2022-09-09T07:04:02;15.70;99.90
13598;DHT22;38563;54.258;12.574;2022-09-09T07:06:33;15.70;99.90
13598;DHT22;38563;54.258;12.574;2022-09-09T07:09:04;15.70;99.90
13598;DHT22;38563;54.258;12.574;2022-09-09T07:11:37;15.80;99.90
13598;DHT22;38563;54.258;12.574;2022-09-09T07:14:06;15.90;99.90
13598;DHT22;38563;54.258;12.574;2022-09-09T07:16:33;15.90;99.90
13598;DHT22;38563;54.258;12.574;2022-09-09T07:19:03;16.10;99.90
13598;DHT22;38563;54.258;12.574;2022-09-09T07:21:30;16.20;99.90
13598;DHT22;38563;54.258;12.574;2022-09-09T07:23:57;16.30;99.90
13598;DHT22;38563;54.258;12.574;2022-09-09T07:26:27;16.30;99.90
13598;DHT22;38563;54.258;12.574;2022-09-09T07:28:55;16.40;99.90
13598;DHT22;38563;54.258;12.574;2022-09-09T07:31:26;16.40;99.90
13598;DHT22;38563;54.258;12.574;2022-09-09T07:33:54;16.50;99.90
13598;DHT22;38563;54.258;12.574;2022-09-09T07:36:22;16.60;99.90
13598;DHT22;38563;54.258;12.574;2022-09-09T07:38:51;16.70;99.90
13598;DHT22;38563;54.258;12.574;2022-09-09T07:41:20;16.70;99.90
13598;DHT22;38563;54.258;12.574;2022-09-09T07:43:49;16.70;99.90
13598;DHT22;38563;54.258;12.574;2022-09-09T07:46:18;16.60;99.90
13598;DHT22;38563;54.258;12.574;2022-09-09T07:48:48;16.70;99.90
13598;DHT22;38563;54.258;12.574;2022-09-09T07:51:20;16.70;99.90
13598;DHT22;38563;54.258;12.574;2022-09-09T07:53:52;16.80;99.90
13598;DHT22;38563;54.258;12.574;2022-09-09T07:56:20;16.90;99.90
13598;DHT22;38563;54.258;12.574;2022-09-09T07:58:50;17.00;99.90
13598;DHT22;38563;54.258;12.574;2022-09-09T08:01:23;17.10;99.90
13598;DHT22;38563;54.258;12.574;2022-09-09T08:03:55;17.20;99.90
13598;DHT22;38563;54.258;12.574;2022-09-09T08:06:26;17.10;99.90
13598;DHT22;38563;54.258;12.574;2022-09-09T08:08:53;17.00;99.90
13598;DHT22;38563;54.258;12.574;2022-09-09T08:11:23;17.10;99.90
13598;DHT22;38563;54.258;12.574;2022-09-09T08:13:51;17.10;99.90
13598;DHT22;38563;54.258;12.574;2022-09-09T08:16:22;17.10;99.90
13598;DHT22;38563;54.258;12.574;2022-09-09T08:18:50;17.20;99.90
13598;DHT22;38563;54.258;12.574;2022-09-09T08:21:21;17.20;99.90
13598;DHT22;38563;54.258;12.574;2022-09-09T08:23:50;17.40;99.90
13598;DHT22;38563;54.258;12.574;2022-09-09T08:26:19;17.50;99.90
13598;DHT22;38563;54.258;12.574;2022-09-09T08:28:47;17.60;99.90
13598;DHT22;38563;54.258;12.574;2022-09-09T08:31:15;17.50;99.90
13598;DHT22;38563;54.258;12.574;2022-09-09T08:33:43;17.60;99.90
13598;DHT22;38563;54.258;12.574;2022-09-09T08:36:12;17.50;99.90
13598;DHT22;38563;54.258;12.574;2022-09-09T08:38:43;17.50;99.90
13598;DHT22;38563;54.258;12.574;2022-09-09T08:41:28;17.40;99.90
13598;DHT22;38563;54.258;12.574;2022-09-09T08:44:01;17.40;99.90
13598;DHT22;38563;54.258;12.574;2022-09-09T08:46:34;17.50;99.90
13598;DHT22;38563;54.258;12.574;2022-09-09T08:49:10;17.50;99.90
13598;DHT22;38563;54.258;12.574;2022-09-09T08:51:41;17.40;99.90
13598;DHT22;38563;54.258;12.574;2022-09-09T08:54:10;17.40;99.90
13598;DHT22;38563;54.258;12.574;2022-09-09T08:56:37;17.50;99.90
13598;DHT22;38563;54.258;12.574;2022-09-09T08:59:04;17.50;99.90
13598;DHT22;38563;54.258;12.574;2022-09-09T09:01:52;17.70;99.90
13598;DHT22;38563;54.258;12.574;2022-09-09T09:04:36;17.80;99.90
13598;DHT22;38563;54.258;12.574;2022-09-09T09:07:11;17.90;99.90
13598;DHT22;38563;54.258;12.574;2022-09-09T09:09:53;18.00;99.90
13598;DHT22;38563;54.258;12.574;2022-09-09T09:12:28;17.80;99.90
13598;DHT22;38563;54.258;12.574;2022-09-09T09:14:56;17.70;99.90
13598;DHT22;38563;54.258;12.574;2022-09-09T09:17:27;17.70;99.90
13598;DHT22;38563;54.258;12.574;2022-09-09T09:19:57;17.90;99.90
13598;DHT22;38563;54.258;12.574;2022-09-09T09:22:32;18.10;99.90
13598;DHT22;38563;54.258;12.574;2022-09-09T09:25:11;18.30;99.90
13598;DHT22;38563;54.258;12.574;2022-09-09T09:27:49;18.40;99.90
13598;DHT22;38563;54.258;12.574;2022-09-09T09:30:20;18.60;99.90
13598;DHT22;38563;54.258;12.574;2022-09-09T09:32:53;18.70;99.90
13598;DHT22;38563;54.258;12.574;2022-09-09T09:35:21;18.70;99.90
13598;DHT22;38563;54.258;12.574;2022-09-09T09:37:48;18.60;99.90
13598;DHT22;38563;54.258;12.574;2022-09-09T09:40:18;18.50;99.90
13598;DHT22;38563;54.258;12.574;2022-09-09T09:42:53;18.60;99.90
13598;DHT22;38563;54.258;12.574;2022-09-09T09:45:26;18.60;99.90
13598;DHT22;38563;54.258;12.574;2022-09-09T09:48:02;18.80;99.90
13598;DHT22;38563;54.258;12.574;2022-09-09T09:50:32;18.90;99.90
13598;DHT22;38563;54.258;12.574;2022-09-09T09:53:01;19.00;99.90
13598;DHT22;38563;54.258;12.574;2022-09-09T09:55:34;19.00;99.90
13598;DHT22;38563;54.258;12.574;2022-09-09T09:58:03;18.80;99.90
13598;DHT22;38563;54.258;12.574;2022-09-09T10:00:32;18.80;99.90
13598;DHT22;38563;54.258;12.574;2022-09-09T10:03:14;18.80;99.90
13598;DHT22;38563;54.258;12.574;2022-09-09T10:05:46;18.80;99.90
13598;DHT22;38563;54.258;12.574;2022-09-09T10:08:15;18.90;99.90
13598;DHT22;38563;54.258;12.574;2022-09-09T10:10:52;18.90;99.90
13598;DHT22;38563;54.258;12.574;2022-09-09T10:13:27;18.90;99.90
13598;DHT22;38563;54.258;12.574;2022-09-09T10:16:16;19.10;99.90
13598;DHT22;38563;54.258;12.574;2022-09-09T10:18:54;19.20;99.90
13598;DHT22;38563;54.258;12.574;2022-09-09T10:21:34;19.30;99.90
13598;DHT22;38563;54.258;12.574;2022-09-09T10:24:23;19.40;99.90
13598;DHT22;38563;54.258;12.574;2022-09-09T10:27:01;19.40;99.90
13598;DHT22;38563;54.258;12.574;2022-09-09T10:29:52;19.40;99.90
13598;DHT22;38563;54.258;12.574;2022-09-09T10:32:37;19.20;99.90
13598;DHT22;38563;54.258;12.574;2022-09-09T10:35:10;19.30;99.90
13598;DHT22;38563;54.258;12.574;2022-09-09T10:37:46;19.40;99.90
13598;DHT22;38563;54.258;12.574;2022-09-09T10:40:27;19.30;99.90
13598;DHT22;38563;54.258;12.574;2022-09-09T10:43:13;19.20;99.90
13598;DHT22;38563;54.258;12.574;2022-09-09T10:45:53;19.20;99.90
13598;DHT22;38563;54.258;12.574;2022-09-09T10:48:31;19.30;99.90
13598;DHT22;38563;54.258;12.574;2022-09-09T10:51:08;19.50;99.90
13598;DHT22;38563;54.258;12.574;2022-09-09T10:53:48;19.70;99.90
13598;DHT22;38563;54.258;12.574;2022-09-09T10:56:20;19.80;99.90
13598;DHT22;38563;54.258;12.574;2022-09-09T10:58:53;19.80;99.90
13598;DHT22;38563;54.258;12.574;2022-09-09T11:01:24;19.80;99.90
13598;DHT22;38563;54.258;12.574;2022-09-09T11:03:55;20.00;99.90
13598;DHT22;38563;54.258;12.574;2022-09-09T11:06:28;20.00;99.90
13598;DHT22;38563;54.258;12.574;2022-09-09T11:08:59;20.10;99.90
13598;DHT22;38563;54.258;12.574;2022-09-09T11:11:32;20.10;99.90
13598;DHT22;38563;54.258;12.574;2022-09-09T11:14:09;20.10;99.90
13598;DHT22;38563;54.258;12.574;2022-09-09T11:16:40;20.20;99.90
13598;DHT22;38563;54.258;12.574;2022-09-09T11:19:15;20.40;99.90
13598;DHT22;38563;54.258;12.574;2022-09-09T11:21:46;20.40;99.90
13598;DHT22;38563;54.258;12.574;2022-09-09T11:24:16;20.40;99.90
13598;DHT22;38563;54.258;12.574;2022-09-09T11:26:47;20.40;99.90
13598;DHT22;38563;54.258;12.574;2022-09-09T11:29:42;20.40;99.90
13598;DHT22;38563;54.258;12.574;2022-09-09T11:32:31;20.50;99.90
13598;DHT22;38563;54.258;12.574;2022-09-09T11:35:26;20.70;99.90
13598;DHT22;38563;54.258;12.574;2022-09-09T11:38:10;20.80;99.90
13598;DHT22;38563;54.258;12.574;2022-09-09T11:40:38;20.90;99.90
13598;DHT22;38563;54.258;12.574;2022-09-09T11:43:12;21.00;99.90
13598;DHT22;38563;54.258;12.574;2022-09-09T11:45:41;21.10;99.90
13598;DHT22;38563;54.258;12.574;2022-09-09T11:48:23;21.00;99.90
13598;DHT22;38563;54.258;12.574;2022-09-09T11:50:58;20.90;99.90
13598;DHT22;38563;54.258;12.574;2022-09-09T11:53:26;20.60;99.90
13598;DHT22;38563;54.258;12.574;2022-09-09T11:56:10;20.50;99.90
13598;DHT22;38563;54.258;12.574;2022-09-09T11:58:43;20.80;99.90
13598;DHT22;38563;54.258;12.574;2022-09-09T12:01:28;20.90;99.90
13598;DHT22;38563;54.258;12.574;2022-09-09T12:04:09;20.90;99.90
13598;DHT22;38563;54.258;12.574;2022-09-09T12:06:43;21.10;99.90
13598;DHT22;38563;54.258;12.574;2022-09-09T12:09:18;21.20;99.90
13598;DHT22;38563;54.258;12.574;2022-09-09T12:11:46;21.20;99.90
13598;DHT22;38563;54.258;12.574;2022-09-09T12:14:20;21.00;99.90
13598;DHT22;38563;54.258;12.574;2022-09-09T12:16:49;21.00;99.90
13598;DHT22;38563;54.258;12.574;2022-09-09T12:19:20;21.20;99.90
13598;DHT22;38563;54.258;12.574;2022-09-09T12:21:54;21.40;99.90
13598;DHT22;38563;54.258;12.574;2022-09-09T12:24:31;21.70;99.90
13598;DHT22;38563;54.258;12.574;2022-09-09T12:27:07;21.70;99.90
13598;DHT22;38563;54.258;12.574;2022-09-09T12:29:43;21.70;99.90
13598;DHT22;38563;54.258;12.574;2022-09-09T12:32:15;21.90;99.90
13598;DHT22;38563;54.258;12.574;2022-09-09T12:34:46;22.00;99.90
13598;DHT22;38563;54.258;12.574;2022-09-09T12:37:18;22.00;99.90
13598;DHT22;38563;54.258;12.574;2022-09-09T12:39:53;22.00;99.90
13598;DHT22;38563;54.258;12.574;2022-09-09T12:42:21;21.90;99.90
13598;DHT22;38563;54.258;12.574;2022-09-09T12:44:53;21.80;99.90
13598;DHT22;38563;54.258;12.574;2022-09-09T12:47:25;21.80;99.90
13598;DHT22;38563;54.258;12.574;2022-09-09T12:49:55;21.90;99.90
13598;DHT22;38563;54.258;12.574;2022-09-09T12:52:27;21.80;99.90
13598;DHT22;38563;54.258;12.574;2022-09-09T12:54:57;21.90;99.90
13598;DHT22;38563;54.258;12.574;2022-09-09T12:57:32;21.90;99.90
13598;DHT22;38563;54.258;12.574;2022-09-09T13:00:07;21.80;99.90
13598;DHT22;38563;54.258;12.574;2022-09-09T13:02:46;21.60;99.90
13598;DHT22;38563;54.258;12.574;2022-09-09T13:05:15;21.30;99.90
13598;DHT22;38563;54.258;12.574;2022-09-09T13:07:42;21.30;99.90
13598;DHT22;38563;54.258;12.574;2022-09-09T13:10:11;21.40;99.90
13598;DHT22;38563;54.258;12.574;2022-09-09T13:12:39;21.60;99.90
13598;DHT22;38563;54.258;12.574;2022-09-09T13:15:16;21.60;99.90
13598;DHT22;38563;54.258;12.574;2022-09-09T13:17:51;21.50;99.90
13598;DHT22;38563;54.258;12.574;2022-09-09T13:20:20;21.30;99.90
13598;DHT22;38563;54.258;12.574;2022-09-09T13:22:48;21.20;99.90
13598;DHT22;38563;54.258;12.574;2022-09-09T13:25:21;21.20;99.90
13598;DHT22;38563;54.258;12.574;2022-09-09T13:28:01;21.10;99.90
13598;DHT22;38563;54.258;12.574;2022-09-09T13:30:30;21.00;99.90
13598;DHT22;38563;54.258;12.574;2022-09-09T13:33:20;20.90;99.90
13598;DHT22;38563;54.258;12.574;2022-09-09T13:35:49;20.90;99.90
13598;DHT22;38563;54.258;12.574;2022-09-09T13:38:17;21.00;99.90
13598;DHT22;38563;54.258;12.574;2022-09-09T13:40:53;21.10;99.90
13598;DHT22;38563;54.258;12.574;2022-09-09T13:43:22;21.20;99.90
13598;DHT22;38563;54.258;12.574;2022-09-09T13:45:53;21.10;99.90
13598;DHT22;38563;54.258;12.574;2022-09-09T13:48:23;21.00;99.90
13598;DHT22;38563;54.258;12.574;2022-09-09T13:50:58;21.10;99.90
13598;DHT22;38563;54.258;12.574;2022-09-09T13:53:25;21.30;99.90
13598;DHT22;38563;54.258;12.574;2022-09-09T13:55:52;21.30;99.90
13598;DHT22;38563;54.258;12.574;2022-09-09T13:58:19;21.40;99.90
13598;DHT22;38563;54.258;12.574;2022-09-09T14:00:48;21.50;99.90
13598;DHT22;38563;54.258;12.574;2022-09-09T14:03:15;21.40;99.90
13598;DHT22;38563;54.258;12.574;2022-09-09T14:05:44;21.30;99.90
13598;DHT22;38563;54.258;12.574;2022-09-09T14:08:16;21.40;99.90
13598;DHT22;38563;54.258;12.574;2022-09-09T14:10:46;21.40;99.90
13598;DHT22;38563;54.258;12.574;2022-09-09T14:13:13;21.50;99.90
13598;DHT22;38563;54.258;12.574;2022-09-09T14:15:41;21.50;99.90
13598;DHT22;38563;54.258;12.574;2022-09-09T14:18:10;21.60;99.90
13598;DHT22;38563;54.258;12.574;2022-09-09T14:20:37;21.70;99.90
13598;DHT22;38563;54.258;12.574;2022-09-09T14:23:05;21.70;99.90
13598;DHT22;38563;54.258;12.574;2022-09-09T14:25:32;21.60;99.90
13598;DHT22;38563;54.258;12.574;2022-09-09T14:27:58;21.50;99.90
13598;DHT22;38563;54.258;12.574;2022-09-09T14:30:25;21.40;99.90
13598;DHT22;38563;54.258;12.574;2022-09-09T14:32:52;21.30;99.90
13598;DHT22;38563;54.258;12.574;2022-09-09T14:35:19;21.20;99.90
13598;DHT22;38563;54.258;12.574;2022-09-09T14:37:45;21.20;99.90
13598;DHT22;38563;54.258;12.574;2022-09-09T14:40:13;21.00;99.90
13598;DHT22;38563;54.258;12.574;2022-09-09T14:42:41;21.00;99.90
13598;DHT22;38563;54.258;12.574;2022-09-09T14:45:08;21.00;99.90
13598;DHT22;38563;54.258;12.574;2022-09-09T14:47:35;20.90;99.90
13598;DHT22;38563;54.258;12.574;2022-09-09T14:50:04;20.80;99.90
13598;DHT22;38563;54.258;12.574;2022-09-09T14:52:31;20.80;99.90
13598;DHT22;38563;54.258;12.574;2022-09-09T14:54:58;20.80;99.90
13598;DHT22;38563;54.258;12.574;2022-09-09T14:57:26;20.70;99.90
13598;DHT22;38563;54.258;12.574;2022-09-09T14:59:53;20.60;99.90
13598;DHT22;38563;54.258;12.574;2022-09-09T15:02:20;20.50;99.90
13598;DHT22;38563;54.258;12.574;2022-09-09T15:04:46;20.50;99.90
13598;DHT22;38563;54.258;12.574;2022-09-09T15:07:15;20.40;99.90
13598;DHT22;38563;54.258;12.574;2022-09-09T15:09:41;20.40;99.90
13598;DHT22;38563;54.258;12.574;2022-09-09T15:12:08;20.40;99.90
13598;DHT22;38563;54.258;12.574;2022-09-09T15:14:36;20.40;99.90
13598;DHT22;38563;54.258;12.574;2022-09-09T15:17:04;20.40;99.90
13598;DHT22;38563;54.258;12.574;2022-09-09T15:19:31;20.40;99.90
13598;DHT22;38563;54.258;12.574;2022-09-09T15:21:58;20.20;99.90
13598;DHT22;38563;54.258;12.574;2022-09-09T15:24:25;20.00;99.90
13598;DHT22;38563;54.258;12.574;2022-09-09T15:26:52;19.80;99.90
13598;DHT22;38563;54.258;12.574;2022-09-09T15:29:19;19.70;99.90
13598;DHT22;38563;54.258;12.574;2022-09-09T15:31:47;19.60;99.90
13598;DHT22;38563;54.258;12.574;2022-09-09T15:34:13;19.70;99.90
13598;DHT22;38563;54.258;12.574;2022-09-09T15:36:41;19.70;99.90
13598;DHT22;38563;54.258;12.574;2022-09-09T15:39:10;19.70;99.90
13598;DHT22;38563;54.258;12.574;2022-09-09T15:41:38;19.70;99.90